Terminal Aerodrome Forecast
Issued by NWS Twin Cities, MN

Home | Current Version | Previous Version | Graphics & Text | Print | Product List | Glossary On
Versions: 1 2 3 4 5 6 7 8 9 10 11 12 13 14 15 16 17 18
000
FTUS43 KMPX 171700
TAFSTC
TAF
KSTC 171737Z 1718/1818 35005KT P6SM SKC
     FM180000 00000KT P6SM SCT120
     FM180900 12003KT P6SM BKN080
     FM181500 12012G19KT P6SM OVC070=

USA.gov is the U.S. government's official web portal to all federal, state and local government web resources and services.